sensor_id;sensor_type;location;lat;lon;timestamp;P1;durP1;ratioP1;P2;durP2;ratioP2
781;SDS011;374;52.568;13.402;2023-05-07T00:00:38;15.43;;;13.80;;
781;SDS011;374;52.568;13.402;2023-05-07T00:03:05;14.80;;;13.27;;
781;SDS011;374;52.568;13.402;2023-05-07T00:05:31;16.60;;;14.07;;
781;SDS011;374;52.568;13.402;2023-05-07T00:07:57;15.17;;;13.77;;
781;SDS011;374;52.568;13.402;2023-05-07T00:10:22;14.90;;;13.40;;
781;SDS011;374;52.568;13.402;2023-05-07T00:12:48;16.60;;;14.90;;
781;SDS011;374;52.568;13.402;2023-05-07T00:15:13;16.17;;;14.47;;
781;SDS011;374;52.568;13.402;2023-05-07T00:17:39;15.13;;;13.27;;
781;SDS011;374;52.568;13.402;2023-05-07T00:20:04;17.43;;;14.67;;
781;SDS011;374;52.568;13.402;2023-05-07T00:22:31;15.90;;;14.30;;
781;SDS011;374;52.568;13.402;2023-05-07T00:24:57;16.83;;;14.13;;
781;SDS011;374;52.568;13.402;2023-05-07T00:27:22;16.13;;;13.87;;
781;SDS011;374;52.568;13.402;2023-05-07T00:29:48;15.07;;;13.43;;
781;SDS011;374;52.568;13.402;2023-05-07T00:32:13;16.40;;;14.33;;
781;SDS011;374;52.568;13.402;2023-05-07T00:34:39;16.03;;;14.23;;
781;SDS011;374;52.568;13.402;2023-05-07T00:37:05;15.73;;;14.13;;
781;SDS011;374;52.568;13.402;2023-05-07T00:39:32;16.60;;;14.57;;
781;SDS011;374;52.568;13.402;2023-05-07T00:42:05;15.57;;;13.83;;
781;SDS011;374;52.568;13.402;2023-05-07T00:44:31;18.77;;;13.47;;
781;SDS011;374;52.568;13.402;2023-05-07T00:46:56;21.03;;;14.30;;
781;SDS011;374;52.568;13.402;2023-05-07T00:49:22;17.87;;;14.03;;
781;SDS011;374;52.568;13.402;2023-05-07T00:52:05;15.17;;;13.57;;
781;SDS011;374;52.568;13.402;2023-05-07T00:54:32;15.63;;;14.07;;
781;SDS011;374;52.568;13.402;2023-05-07T00:56:58;18.47;;;13.27;;
781;SDS011;374;52.568;13.402;2023-05-07T00:59:25;15.50;;;14.00;;
781;SDS011;374;52.568;13.402;2023-05-07T01:01:51;16.37;;;14.70;;
781;SDS011;374;52.568;13.402;2023-05-07T01:04:17;17.43;;;15.13;;
781;SDS011;374;52.568;13.402;2023-05-07T01:06:42;16.73;;;14.00;;
781;SDS011;374;52.568;13.402;2023-05-07T01:09:09;16.77;;;15.07;;
781;SDS011;374;52.568;13.402;2023-05-07T01:11:35;17.70;;;14.70;;
781;SDS011;374;52.568;13.402;2023-05-07T01:14:01;16.67;;;14.53;;
781;SDS011;374;52.568;13.402;2023-05-07T01:16:27;16.63;;;14.10;;
781;SDS011;374;52.568;13.402;2023-05-07T01:18:53;18.73;;;14.57;;
781;SDS011;374;52.568;13.402;2023-05-07T01:21:18;15.73;;;14.03;;
781;SDS011;374;52.568;13.402;2023-05-07T01:23:51;17.20;;;15.33;;
781;SDS011;374;52.568;13.402;2023-05-07T01:26:17;14.77;;;13.27;;
781;SDS011;374;52.568;13.402;2023-05-07T01:28:44;16.90;;;14.83;;
781;SDS011;374;52.568;13.402;2023-05-07T01:31:10;16.50;;;14.43;;
781;SDS011;374;52.568;13.402;2023-05-07T01:33:38;15.30;;;13.67;;
781;SDS011;374;52.568;13.402;2023-05-07T01:36:06;16.43;;;13.67;;
781;SDS011;374;52.568;13.402;2023-05-07T01:38:33;15.17;;;13.57;;
781;SDS011;374;52.568;13.402;2023-05-07T01:41:01;15.13;;;13.63;;
781;SDS011;374;52.568;13.402;2023-05-07T01:43:27;16.53;;;14.33;;
781;SDS011;374;52.568;13.402;2023-05-07T01:45:54;17.37;;;14.10;;
781;SDS011;374;52.568;13.402;2023-05-07T01:48:20;15.37;;;13.83;;
781;SDS011;374;52.568;13.402;2023-05-07T01:50:46;15.20;;;13.63;;
781;SDS011;374;52.568;13.402;2023-05-07T01:53:12;16.50;;;13.00;;
781;SDS011;374;52.568;13.402;2023-05-07T01:55:38;15.97;;;13.20;;
781;SDS011;374;52.568;13.402;2023-05-07T01:58:04;16.27;;;13.50;;
781;SDS011;374;52.568;13.402;2023-05-07T02:00:31;19.07;;;13.33;;
781;SDS011;374;52.568;13.402;2023-05-07T02:02:56;17.43;;;13.17;;
781;SDS011;374;52.568;13.402;2023-05-07T02:05:25;13.87;;;12.40;;
781;SDS011;374;52.568;13.402;2023-05-07T02:07:50;17.70;;;13.97;;
781;SDS011;374;52.568;13.402;2023-05-07T02:10:16;15.40;;;13.50;;
781;SDS011;374;52.568;13.402;2023-05-07T02:12:42;15.30;;;13.33;;
781;SDS011;374;52.568;13.402;2023-05-07T02:15:08;15.10;;;13.23;;
781;SDS011;374;52.568;13.402;2023-05-07T02:17:34;14.80;;;13.30;;
781;SDS011;374;52.568;13.402;2023-05-07T02:20:02;14.90;;;12.07;;
781;SDS011;374;52.568;13.402;2023-05-07T02:22:28;13.80;;;12.60;;
781;SDS011;374;52.568;13.402;2023-05-07T02:24:54;15.53;;;12.77;;
781;SDS011;374;52.568;13.402;2023-05-07T02:27:19;14.47;;;12.97;;
781;SDS011;374;52.568;13.402;2023-05-07T02:29:45;15.10;;;12.77;;
781;SDS011;374;52.568;13.402;2023-05-07T02:32:11;15.07;;;13.47;;
781;SDS011;374;52.568;13.402;2023-05-07T02:34:37;17.03;;;13.63;;
781;SDS011;374;52.568;13.402;2023-05-07T02:37:03;15.93;;;14.30;;
781;SDS011;374;52.568;13.402;2023-05-07T02:39:28;15.83;;;13.70;;
781;SDS011;374;52.568;13.402;2023-05-07T02:41:54;14.10;;;12.67;;
781;SDS011;374;52.568;13.402;2023-05-07T02:44:20;14.83;;;13.27;;
781;SDS011;374;52.568;13.402;2023-05-07T02:46:45;13.70;;;12.20;;
781;SDS011;374;52.568;13.402;2023-05-07T02:49:10;12.73;;;11.33;;
781;SDS011;374;52.568;13.402;2023-05-07T02:51:36;13.90;;;12.40;;
781;SDS011;374;52.568;13.402;2023-05-07T02:54:01;12.87;;;11.60;;
781;SDS011;374;52.568;13.402;2023-05-07T02:56:36;13.87;;;12.07;;
781;SDS011;374;52.568;13.402;2023-05-07T02:59:04;15.83;;;11.60;;
781;SDS011;374;52.568;13.402;2023-05-07T03:01:29;13.50;;;12.17;;
781;SDS011;374;52.568;13.402;2023-05-07T03:03:55;12.73;;;11.40;;
781;SDS011;374;52.568;13.402;2023-05-07T03:06:21;14.00;;;11.30;;
781;SDS011;374;52.568;13.402;2023-05-07T03:08:47;13.00;;;11.60;;
781;SDS011;374;52.568;13.402;2023-05-07T03:11:12;13.80;;;12.40;;
781;SDS011;374;52.568;13.402;2023-05-07T03:13:39;12.60;;;11.40;;
781;SDS011;374;52.568;13.402;2023-05-07T03:16:05;13.40;;;11.97;;
781;SDS011;374;52.568;13.402;2023-05-07T03:18:30;13.03;;;11.60;;
781;SDS011;374;52.568;13.402;2023-05-07T03:20:56;14.70;;;11.17;;
781;SDS011;374;52.568;13.402;2023-05-07T03:23:22;11.63;;;10.40;;
781;SDS011;374;52.568;13.402;2023-05-07T03:25:48;12.00;;;10.83;;
781;SDS011;374;52.568;13.402;2023-05-07T03:28:14;11.83;;;10.60;;
781;SDS011;374;52.568;13.402;2023-05-07T03:30:39;14.60;;;11.70;;
781;SDS011;374;52.568;13.402;2023-05-07T03:33:05;11.07;;;9.90;;
781;SDS011;374;52.568;13.402;2023-05-07T03:35:31;12.97;;;10.80;;
781;SDS011;374;52.568;13.402;2023-05-07T03:37:57;13.10;;;11.67;;
781;SDS011;374;52.568;13.402;2023-05-07T03:40:22;12.07;;;10.87;;
781;SDS011;374;52.568;13.402;2023-05-07T03:42:48;12.97;;;11.17;;
781;SDS011;374;52.568;13.402;2023-05-07T03:45:13;13.97;;;12.47;;
781;SDS011;374;52.568;13.402;2023-05-07T03:47:39;12.70;;;11.07;;
781;SDS011;374;52.568;13.402;2023-05-07T03:50:05;12.57;;;11.27;;
781;SDS011;374;52.568;13.402;2023-05-07T03:52:30;13.00;;;11.70;;
781;SDS011;374;52.568;13.402;2023-05-07T03:54:56;15.10;;;12.50;;
781;SDS011;374;52.568;13.402;2023-05-07T03:57:21;11.67;;;10.57;;
781;SDS011;374;52.568;13.402;2023-05-07T03:59:47;12.10;;;10.90;;
781;SDS011;374;52.568;13.402;2023-05-07T04:02:12;11.93;;;10.73;;
781;SDS011;374;52.568;13.402;2023-05-07T04:04:38;10.73;;;9.77;;
781;SDS011;374;52.568;13.402;2023-05-07T04:07:03;11.50;;;10.40;;
781;SDS011;374;52.568;13.402;2023-05-07T04:09:29;13.23;;;11.90;;
781;SDS011;374;52.568;13.402;2023-05-07T04:11:55;12.07;;;9.60;;
781;SDS011;374;52.568;13.402;2023-05-07T04:14:20;11.80;;;10.70;;
781;SDS011;374;52.568;13.402;2023-05-07T04:16:48;10.40;;;9.40;;
781;SDS011;374;52.568;13.402;2023-05-07T04:19:14;11.63;;;10.53;;
781;SDS011;374;52.568;13.402;2023-05-07T04:21:45;10.87;;;9.77;;
781;SDS011;374;52.568;13.402;2023-05-07T04:24:15;13.30;;;10.43;;
781;SDS011;374;52.568;13.402;2023-05-07T04:26:43;11.60;;;10.50;;
781;SDS011;374;52.568;13.402;2023-05-07T04:29:09;11.30;;;10.20;;
781;SDS011;374;52.568;13.402;2023-05-07T04:31:36;13.37;;;10.10;;
781;SDS011;374;52.568;13.402;2023-05-07T04:34:02;10.60;;;9.50;;
781;SDS011;374;52.568;13.402;2023-05-07T04:36:28;10.53;;;9.50;;
781;SDS011;374;52.568;13.402;2023-05-07T04:38:54;10.77;;;9.07;;
781;SDS011;374;52.568;13.402;2023-05-07T04:41:19;11.50;;;9.60;;
781;SDS011;374;52.568;13.402;2023-05-07T04:43:47;10.07;;;9.07;;
781;SDS011;374;52.568;13.402;2023-05-07T04:46:13;12.23;;;10.37;;
781;SDS011;374;52.568;13.402;2023-05-07T04:48:39;13.07;;;11.27;;
781;SDS011;374;52.568;13.402;2023-05-07T04:51:05;12.40;;;10.07;;
781;SDS011;374;52.568;13.402;2023-05-07T04:53:31;12.80;;;10.13;;
781;SDS011;374;52.568;13.402;2023-05-07T04:55:57;12.83;;;10.70;;
781;SDS011;374;52.568;13.402;2023-05-07T04:58:23;9.57;;;8.77;;
781;SDS011;374;52.568;13.402;2023-05-07T05:00:52;10.47;;;9.27;;
781;SDS011;374;52.568;13.402;2023-05-07T05:03:20;10.40;;;8.47;;
781;SDS011;374;52.568;13.402;2023-05-07T05:05:46;11.00;;;9.10;;
781;SDS011;374;52.568;13.402;2023-05-07T05:08:17;11.10;;;10.00;;
781;SDS011;374;52.568;13.402;2023-05-07T05:10:46;9.57;;;8.33;;
781;SDS011;374;52.568;13.402;2023-05-07T05:13:13;11.90;;;9.40;;
781;SDS011;374;52.568;13.402;2023-05-07T05:15:39;11.40;;;8.93;;
781;SDS011;374;52.568;13.402;2023-05-07T05:18:05;11.83;;;10.43;;
781;SDS011;374;52.568;13.402;2023-05-07T05:20:31;10.00;;;8.97;;
781;SDS011;374;52.568;13.402;2023-05-07T05:22:56;12.60;;;9.80;;
781;SDS011;374;52.568;13.402;2023-05-07T05:25:22;11.30;;;9.00;;
781;SDS011;374;52.568;13.402;2023-05-07T05:27:49;11.10;;;9.47;;
781;SDS011;374;52.568;13.402;2023-05-07T05:30:23;10.00;;;9.00;;
781;SDS011;374;52.568;13.402;2023-05-07T05:33:10;10.07;;;8.07;;
781;SDS011;374;52.568;13.402;2023-05-07T05:35:35;10.87;;;8.17;;
781;SDS011;374;52.568;13.402;2023-05-07T05:38:01;11.03;;;9.43;;
781;SDS011;374;52.568;13.402;2023-05-07T05:40:29;9.43;;;8.53;;
781;SDS011;374;52.568;13.402;2023-05-07T05:42:55;12.70;;;9.30;;
781;SDS011;374;52.568;13.402;2023-05-07T05:45:21;10.97;;;9.33;;
781;SDS011;374;52.568;13.402;2023-05-07T05:47:49;9.93;;;8.63;;
781;SDS011;374;52.568;13.402;2023-05-07T05:50:14;12.07;;;9.40;;
781;SDS011;374;52.568;13.402;2023-05-07T05:52:40;11.00;;;9.50;;
781;SDS011;374;52.568;13.402;2023-05-07T05:55:07;10.93;;;9.73;;
781;SDS011;374;52.568;13.402;2023-05-07T05:57:55;11.47;;;9.13;;
781;SDS011;374;52.568;13.402;2023-05-07T06:00:26;10.70;;;9.50;;
781;SDS011;374;52.568;13.402;2023-05-07T06:02:58;14.43;;;10.27;;
781;SDS011;374;52.568;13.402;2023-05-07T06:05:23;10.13;;;9.13;;
781;SDS011;374;52.568;13.402;2023-05-07T06:07:49;11.53;;;9.30;;
781;SDS011;374;52.568;13.402;2023-05-07T06:10:15;10.13;;;9.13;;
781;SDS011;374;52.568;13.402;2023-05-07T06:12:41;10.83;;;9.73;;
781;SDS011;374;52.568;13.402;2023-05-07T06:15:07;11.10;;;9.90;;
781;SDS011;374;52.568;13.402;2023-05-07T06:17:32;10.20;;;8.80;;
781;SDS011;374;52.568;13.402;2023-05-07T06:19:58;10.67;;;9.57;;
781;SDS011;374;52.568;13.402;2023-05-07T06:22:24;11.80;;;9.17;;
781;SDS011;374;52.568;13.402;2023-05-07T06:24:50;10.50;;;9.43;;
781;SDS011;374;52.568;13.402;2023-05-07T06:27:15;11.00;;;9.10;;
781;SDS011;374;52.568;13.402;2023-05-07T06:29:41;10.17;;;9.13;;
781;SDS011;374;52.568;13.402;2023-05-07T06:32:07;9.70;;;8.70;;
781;SDS011;374;52.568;13.402;2023-05-07T06:34:37;9.90;;;8.90;;
781;SDS011;374;52.568;13.402;2023-05-07T06:37:03;12.03;;;9.20;;
781;SDS011;374;52.568;13.402;2023-05-07T06:39:29;9.57;;;8.67;;
781;SDS011;374;52.568;13.402;2023-05-07T06:41:54;11.10;;;8.27;;
781;SDS011;374;52.568;13.402;2023-05-07T06:44:20;9.43;;;8.40;;
781;SDS011;374;52.568;13.402;2023-05-07T06:46:46;9.93;;;8.87;;
781;SDS011;374;52.568;13.402;2023-05-07T06:49:12;9.30;;;8.50;;
781;SDS011;374;52.568;13.402;2023-05-07T06:51:40;9.30;;;8.40;;
781;SDS011;374;52.568;13.402;2023-05-07T06:54:06;9.50;;;8.60;;
781;SDS011;374;52.568;13.402;2023-05-07T06:56:32;8.87;;;8.07;;
781;SDS011;374;52.568;13.402;2023-05-07T06:58:59;8.60;;;7.80;;
781;SDS011;374;52.568;13.402;2023-05-07T07:01:25;11.40;;;7.73;;
781;SDS011;374;52.568;13.402;2023-05-07T07:03:51;9.33;;;8.43;;
781;SDS011;374;52.568;13.402;2023-05-07T07:06:16;15.03;;;9.43;;
781;SDS011;374;52.568;13.402;2023-05-07T07:08:42;9.53;;;8.60;;
781;SDS011;374;52.568;13.402;2023-05-07T07:11:08;10.00;;;8.40;;
781;SDS011;374;52.568;13.402;2023-05-07T07:13:35;8.30;;;7.50;;
781;SDS011;374;52.568;13.402;2023-05-07T07:16:00;8.90;;;7.47;;
781;SDS011;374;52.568;13.402;2023-05-07T07:18:26;8.17;;;7.47;;
781;SDS011;374;52.568;13.402;2023-05-07T07:20:52;10.70;;;7.10;;
781;SDS011;374;52.568;13.402;2023-05-07T07:23:17;8.10;;;6.70;;
781;SDS011;374;52.568;13.402;2023-05-07T07:25:43;7.83;;;7.03;;
781;SDS011;374;52.568;13.402;2023-05-07T07:28:09;7.77;;;7.00;;
781;SDS011;374;52.568;13.402;2023-05-07T07:30:35;6.57;;;5.83;;
781;SDS011;374;52.568;13.402;2023-05-07T07:33:01;7.37;;;6.63;;
781;SDS011;374;52.568;13.402;2023-05-07T07:35:28;7.40;;;6.80;;
781;SDS011;374;52.568;13.402;2023-05-07T07:37:54;8.13;;;7.30;;
781;SDS011;374;52.568;13.402;2023-05-07T07:40:20;6.40;;;5.80;;
781;SDS011;374;52.568;13.402;2023-05-07T07:42:45;6.77;;;6.03;;
781;SDS011;374;52.568;13.402;2023-05-07T07:45:11;8.03;;;5.67;;
781;SDS011;374;52.568;13.402;2023-05-07T07:47:37;7.10;;;5.60;;
781;SDS011;374;52.568;13.402;2023-05-07T07:50:04;6.40;;;5.90;;
781;SDS011;374;52.568;13.402;2023-05-07T07:52:30;5.50;;;5.00;;
781;SDS011;374;52.568;13.402;2023-05-07T07:54:56;5.57;;;5.17;;
781;SDS011;374;52.568;13.402;2023-05-07T07:57:21;5.53;;;5.13;;
781;SDS011;374;52.568;13.402;2023-05-07T07:59:47;6.27;;;5.13;;
781;SDS011;374;52.568;13.402;2023-05-07T08:02:12;5.10;;;4.70;;
781;SDS011;374;52.568;13.402;2023-05-07T08:04:38;5.50;;;5.00;;
781;SDS011;374;52.568;13.402;2023-05-07T08:07:03;5.57;;;5.07;;
781;SDS011;374;52.568;13.402;2023-05-07T08:09:29;6.00;;;5.10;;
781;SDS011;374;52.568;13.402;2023-05-07T08:11:54;5.13;;;4.73;;
781;SDS011;374;52.568;13.402;2023-05-07T08:14:20;4.20;;;3.90;;
781;SDS011;374;52.568;13.402;2023-05-07T08:16:45;5.40;;;5.00;;
781;SDS011;374;52.568;13.402;2023-05-07T08:19:11;5.30;;;4.80;;
781;SDS011;374;52.568;13.402;2023-05-07T08:21:39;4.97;;;4.57;;
781;SDS011;374;52.568;13.402;2023-05-07T08:24:05;5.23;;;4.57;;
781;SDS011;374;52.568;13.402;2023-05-07T08:26:31;5.40;;;4.17;;
781;SDS011;374;52.568;13.402;2023-05-07T08:28:56;4.93;;;3.70;;
781;SDS011;374;52.568;13.402;2023-05-07T08:31:22;4.90;;;4.47;;
781;SDS011;374;52.568;13.402;2023-05-07T08:33:47;5.20;;;4.80;;
781;SDS011;374;52.568;13.402;2023-05-07T08:36:13;6.37;;;4.93;;
781;SDS011;374;52.568;13.402;2023-05-07T08:38:39;4.83;;;4.47;;
781;SDS011;374;52.568;13.402;2023-05-07T08:41:15;4.80;;;4.40;;
781;SDS011;374;52.568;13.402;2023-05-07T08:43:41;4.57;;;4.27;;
781;SDS011;374;52.568;13.402;2023-05-07T08:46:09;4.80;;;4.40;;
781;SDS011;374;52.568;13.402;2023-05-07T08:48:36;4.30;;;4.00;;
781;SDS011;374;52.568;13.402;2023-05-07T08:51:02;4.63;;;4.23;;
781;SDS011;374;52.568;13.402;2023-05-07T08:53:27;5.30;;;4.27;;
781;SDS011;374;52.568;13.402;2023-05-07T08:55:53;4.70;;;4.40;;
781;SDS011;374;52.568;13.402;2023-05-07T08:58:18;4.70;;;4.30;;
781;SDS011;374;52.568;13.402;2023-05-07T09:00:44;4.53;;;3.80;;
781;SDS011;374;52.568;13.402;2023-05-07T09:03:10;3.77;;;3.47;;
781;SDS011;374;52.568;13.402;2023-05-07T09:05:39;4.47;;;4.10;;
781;SDS011;374;52.568;13.402;2023-05-07T09:08:05;4.53;;;4.10;;
781;SDS011;374;52.568;13.402;2023-05-07T09:10:32;5.57;;;3.60;;
781;SDS011;374;52.568;13.402;2023-05-07T09:12:58;4.50;;;4.10;;
781;SDS011;374;52.568;13.402;2023-05-07T09:15:24;4.67;;;4.00;;
781;SDS011;374;52.568;13.402;2023-05-07T09:17:50;4.80;;;4.30;;
781;SDS011;374;52.568;13.402;2023-05-07T09:20:15;4.00;;;3.60;;
781;SDS011;374;52.568;13.402;2023-05-07T09:22:41;4.07;;;3.77;;
781;SDS011;374;52.568;13.402;2023-05-07T09:25:07;3.90;;;3.60;;
781;SDS011;374;52.568;13.402;2023-05-07T09:27:34;4.10;;;3.80;;
781;SDS011;374;52.568;13.402;2023-05-07T09:30:02;4.13;;;3.83;;
781;SDS011;374;52.568;13.402;2023-05-07T09:32:29;4.13;;;3.43;;
781;SDS011;374;52.568;13.402;2023-05-07T09:34:56;4.37;;;3.97;;
781;SDS011;374;52.568;13.402;2023-05-07T09:37:21;4.00;;;3.70;;
781;SDS011;374;52.568;13.402;2023-05-07T09:39:49;3.37;;;3.03;;
781;SDS011;374;52.568;13.402;2023-05-07T09:42:14;4.57;;;4.27;;
781;SDS011;374;52.568;13.402;2023-05-07T09:44:40;3.80;;;3.50;;
781;SDS011;374;52.568;13.402;2023-05-07T09:47:07;3.00;;;2.80;;
781;SDS011;374;52.568;13.402;2023-05-07T09:49:34;3.83;;;3.53;;
781;SDS011;374;52.568;13.402;2023-05-07T09:52:01;3.40;;;3.20;;
781;SDS011;374;52.568;13.402;2023-05-07T09:54:28;3.40;;;3.10;;
781;SDS011;374;52.568;13.402;2023-05-07T09:56:54;3.17;;;2.97;;
781;SDS011;374;52.568;13.402;2023-05-07T09:59:20;3.87;;;3.60;;
781;SDS011;374;52.568;13.402;2023-05-07T10:01:47;3.93;;;3.57;;
781;SDS011;374;52.568;13.402;2023-05-07T10:04:13;2.97;;;2.77;;
781;SDS011;374;52.568;13.402;2023-05-07T10:06:39;4.57;;;3.43;;
781;SDS011;374;52.568;13.402;2023-05-07T10:09:05;3.20;;;3.00;;
781;SDS011;374;52.568;13.402;2023-05-07T10:11:32;3.80;;;3.03;;
781;SDS011;374;52.568;13.402;2023-05-07T10:14:04;3.30;;;3.10;;
781;SDS011;374;52.568;13.402;2023-05-07T10:16:35;3.40;;;3.10;;
781;SDS011;374;52.568;13.402;2023-05-07T10:19:04;2.93;;;2.73;;
781;SDS011;374;52.568;13.402;2023-05-07T10:21:33;3.37;;;2.97;;
781;SDS011;374;52.568;13.402;2023-05-07T10:24:13;3.97;;;3.67;;
781;SDS011;374;52.568;13.402;2023-05-07T10:26:47;3.63;;;3.33;;
781;SDS011;374;52.568;13.402;2023-05-07T10:29:18;3.80;;;3.50;;
781;SDS011;374;52.568;13.402;2023-05-07T10:34:40;3.17;;;2.90;;
781;SDS011;374;52.568;13.402;2023-05-07T10:37:09;3.10;;;2.90;;
781;SDS011;374;52.568;13.402;2023-05-07T10:39:35;3.17;;;2.87;;
781;SDS011;374;52.568;13.402;2023-05-07T10:42:08;3.20;;;3.00;;
781;SDS011;374;52.568;13.402;2023-05-07T10:44:35;3.13;;;2.93;;
781;SDS011;374;52.568;13.402;2023-05-07T10:47:06;2.67;;;2.47;;
781;SDS011;374;52.568;13.402;2023-05-07T10:49:34;3.17;;;2.97;;
781;SDS011;374;52.568;13.402;2023-05-07T10:54:42;3.73;;;2.83;;
781;SDS011;374;52.568;13.402;2023-05-07T11:00:03;3.93;;;3.27;;
781;SDS011;374;52.568;13.402;2023-05-07T11:05:29;3.27;;;2.97;;
781;SDS011;374;52.568;13.402;2023-05-07T11:08:02;3.47;;;3.20;;
781;SDS011;374;52.568;13.402;2023-05-07T11:13:14;3.83;;;3.43;;
781;SDS011;374;52.568;13.402;2023-05-07T11:15:42;2.83;;;2.63;;
781;SDS011;374;52.568;13.402;2023-05-07T11:18:12;3.23;;;2.97;;
781;SDS011;374;52.568;13.402;2023-05-07T11:20:45;3.50;;;2.50;;
781;SDS011;374;52.568;13.402;2023-05-07T11:23:58;4.70;;;3.37;;
781;SDS011;374;52.568;13.402;2023-05-07T11:26:04;2.90;;;2.70;;
781;SDS011;374;52.568;13.402;2023-05-07T11:28:38;3.90;;;3.33;;
781;SDS011;374;52.568;13.402;2023-05-07T11:31:05;3.17;;;2.90;;
781;SDS011;374;52.568;13.402;2023-05-07T11:33:31;3.00;;;2.80;;
781;SDS011;374;52.568;13.402;2023-05-07T11:35:57;3.57;;;3.27;;
781;SDS011;374;52.568;13.402;2023-05-07T11:38:23;3.63;;;3.33;;
781;SDS011;374;52.568;13.402;2023-05-07T11:40:53;3.10;;;2.87;;
781;SDS011;374;52.568;13.402;2023-05-07T11:43:20;3.60;;;2.97;;
781;SDS011;374;52.568;13.402;2023-05-07T11:45:45;4.40;;;2.47;;
781;SDS011;374;52.568;13.402;2023-05-07T11:48:12;3.13;;;2.93;;
781;SDS011;374;52.568;13.402;2023-05-07T11:50:59;3.30;;;2.90;;
781;SDS011;374;52.568;13.402;2023-05-07T11:53:38;3.10;;;2.73;;
781;SDS011;374;52.568;13.402;2023-05-07T11:56:05;3.07;;;2.87;;
781;SDS011;374;52.568;13.402;2023-05-07T11:58:35;2.77;;;2.57;;
781;SDS011;374;52.568;13.402;2023-05-07T12:01:01;2.97;;;2.70;;
781;SDS011;374;52.568;13.402;2023-05-07T12:03:27;4.53;;;2.90;;
781;SDS011;374;52.568;13.402;2023-05-07T12:05:52;2.87;;;2.67;;
781;SDS011;374;52.568;13.402;2023-05-07T12:08:19;3.33;;;2.73;;
781;SDS011;374;52.568;13.402;2023-05-07T12:10:46;2.60;;;2.33;;
781;SDS011;374;52.568;13.402;2023-05-07T12:13:23;2.60;;;2.40;;
781;SDS011;374;52.568;13.402;2023-05-07T12:15:50;2.87;;;2.40;;
781;SDS011;374;52.568;13.402;2023-05-07T12:18:16;3.07;;;2.83;;
781;SDS011;374;52.568;13.402;2023-05-07T12:20:42;3.30;;;3.00;;
781;SDS011;374;52.568;13.402;2023-05-07T12:23:08;2.90;;;2.60;;
781;SDS011;374;52.568;13.402;2023-05-07T12:25:34;2.60;;;2.20;;
781;SDS011;374;52.568;13.402;2023-05-07T12:28:04;2.93;;;2.73;;
781;SDS011;374;52.568;13.402;2023-05-07T12:30:36;2.70;;;2.50;;
781;SDS011;374;52.568;13.402;2023-05-07T12:33:03;2.40;;;2.20;;
781;SDS011;374;52.568;13.402;2023-05-07T12:35:30;3.00;;;2.33;;
781;SDS011;374;52.568;13.402;2023-05-07T12:37:59;7.00;;;2.40;;
781;SDS011;374;52.568;13.402;2023-05-07T12:40:42;2.60;;;2.40;;
781;SDS011;374;52.568;13.402;2023-05-07T12:43:14;5.30;;;2.50;;
781;SDS011;374;52.568;13.402;2023-05-07T12:45:41;3.30;;;3.00;;
781;SDS011;374;52.568;13.402;2023-05-07T12:48:09;2.70;;;2.50;;
781;SDS011;374;52.568;13.402;2023-05-07T12:50:35;4.07;;;2.33;;
781;SDS011;374;52.568;13.402;2023-05-07T12:53:02;2.83;;;2.47;;
781;SDS011;374;52.568;13.402;2023-05-07T12:55:31;2.77;;;2.57;;
781;SDS011;374;52.568;13.402;2023-05-07T12:57:56;2.87;;;2.60;;
781;SDS011;374;52.568;13.402;2023-05-07T13:00:32;2.67;;;2.47;;
781;SDS011;374;52.568;13.402;2023-05-07T13:03:01;3.03;;;2.73;;
781;SDS011;374;52.568;13.402;2023-05-07T13:05:27;3.30;;;3.00;;
781;SDS011;374;52.568;13.402;2023-05-07T13:07:58;2.40;;;2.20;;
781;SDS011;374;52.568;13.402;2023-05-07T13:10:26;3.10;;;2.20;;
781;SDS011;374;52.568;13.402;2023-05-07T13:12:52;2.47;;;2.27;;
781;SDS011;374;52.568;13.402;2023-05-07T13:15:17;2.77;;;2.57;;
781;SDS011;374;52.568;13.402;2023-05-07T13:17:43;2.60;;;2.13;;
781;SDS011;374;52.568;13.402;2023-05-07T13:20:09;3.50;;;3.20;;
781;SDS011;374;52.568;13.402;2023-05-07T13:22:36;2.30;;;2.10;;
781;SDS011;374;52.568;13.402;2023-05-07T13:25:02;2.20;;;2.10;;
781;SDS011;374;52.568;13.402;2023-05-07T13:27:30;2.60;;;2.40;;
781;SDS011;374;52.568;13.402;2023-05-07T13:29:56;2.77;;;2.30;;
781;SDS011;374;52.568;13.402;2023-05-07T13:32:22;2.20;;;2.10;;
781;SDS011;374;52.568;13.402;2023-05-07T13:34:47;2.50;;;2.30;;
781;SDS011;374;52.568;13.402;2023-05-07T13:37:13;2.90;;;2.60;;
781;SDS011;374;52.568;13.402;2023-05-07T13:39:39;2.70;;;2.50;;
781;SDS011;374;52.568;13.402;2023-05-07T13:42:05;2.80;;;2.60;;
781;SDS011;374;52.568;13.402;2023-05-07T13:44:31;2.93;;;2.73;;
781;SDS011;374;52.568;13.402;2023-05-07T13:46:56;3.23;;;2.90;;
781;SDS011;374;52.568;13.402;2023-05-07T13:49:22;3.30;;;3.00;;
781;SDS011;374;52.568;13.402;2023-05-07T13:51:50;3.87;;;2.90;;
781;SDS011;374;52.568;13.402;2023-05-07T13:54:15;2.67;;;2.47;;
781;SDS011;374;52.568;13.402;2023-05-07T13:56:41;2.60;;;2.40;;
781;SDS011;374;52.568;13.402;2023-05-07T13:59:06;2.50;;;2.40;;
781;SDS011;374;52.568;13.402;2023-05-07T14:01:32;4.13;;;2.63;;
781;SDS011;374;52.568;13.402;2023-05-07T14:03:57;2.60;;;2.30;;
781;SDS011;374;52.568;13.402;2023-05-07T14:06:24;2.50;;;2.30;;
781;SDS011;374;52.568;13.402;2023-05-07T14:08:49;2.90;;;2.57;;
781;SDS011;374;52.568;13.402;2023-05-07T14:11:15;2.57;;;2.37;;
781;SDS011;374;52.568;13.402;2023-05-07T14:13:41;2.90;;;2.70;;
781;SDS011;374;52.568;13.402;2023-05-07T14:16:06;2.77;;;2.57;;
781;SDS011;374;52.568;13.402;2023-05-07T14:18:32;2.47;;;2.27;;
781;SDS011;374;52.568;13.402;2023-05-07T14:20:59;3.13;;;2.83;;
781;SDS011;374;52.568;13.402;2023-05-07T14:23:25;3.73;;;2.93;;
781;SDS011;374;52.568;13.402;2023-05-07T14:25:51;3.83;;;2.87;;
781;SDS011;374;52.568;13.402;2023-05-07T14:28:18;3.60;;;2.90;;
781;SDS011;374;52.568;13.402;2023-05-07T14:30:44;4.27;;;2.73;;
781;SDS011;374;52.568;13.402;2023-05-07T14:33:09;2.57;;;2.37;;
781;SDS011;374;52.568;13.402;2023-05-07T14:35:35;3.00;;;2.70;;
781;SDS011;374;52.568;13.402;2023-05-07T14:38:00;2.20;;;2.10;;
781;SDS011;374;52.568;13.402;2023-05-07T14:40:26;2.90;;;2.70;;
781;SDS011;374;52.568;13.402;2023-05-07T14:42:51;2.53;;;2.33;;
781;SDS011;374;52.568;13.402;2023-05-07T14:45:17;2.60;;;2.27;;
781;SDS011;374;52.568;13.402;2023-05-07T14:47:45;2.60;;;2.40;;
781;SDS011;374;52.568;13.402;2023-05-07T14:50:11;2.63;;;2.43;;
781;SDS011;374;52.568;13.402;2023-05-07T14:52:38;3.40;;;2.80;;
781;SDS011;374;52.568;13.402;2023-05-07T14:55:04;4.30;;;2.97;;
781;SDS011;374;52.568;13.402;2023-05-07T14:57:30;3.03;;;2.47;;
781;SDS011;374;52.568;13.402;2023-05-07T14:59:59;2.57;;;2.37;;
781;SDS011;374;52.568;13.402;2023-05-07T15:02:25;2.30;;;2.00;;
781;SDS011;374;52.568;13.402;2023-05-07T15:04:51;3.00;;;2.70;;
781;SDS011;374;52.568;13.402;2023-05-07T15:07:16;2.80;;;2.50;;
781;SDS011;374;52.568;13.402;2023-05-07T15:09:43;2.50;;;2.30;;
781;SDS011;374;52.568;13.402;2023-05-07T15:12:09;2.83;;;2.60;;
781;SDS011;374;52.568;13.402;2023-05-07T15:14:34;2.70;;;2.50;;
781;SDS011;374;52.568;13.402;2023-05-07T15:17:00;2.27;;;2.17;;
781;SDS011;374;52.568;13.402;2023-05-07T15:19:26;2.50;;;2.30;;
781;SDS011;374;52.568;13.402;2023-05-07T15:21:54;2.43;;;2.10;;
781;SDS011;374;52.568;13.402;2023-05-07T15:24:23;3.07;;;2.77;;
781;SDS011;374;52.568;13.402;2023-05-07T15:26:49;2.50;;;2.30;;
781;SDS011;374;52.568;13.402;2023-05-07T15:29:16;2.63;;;2.10;;
781;SDS011;374;52.568;13.402;2023-05-07T15:31:42;2.20;;;2.10;;